CheckWX is a tool to help pilots better visualize weather data.  It is not intended as a substitute for an official pre-flight weather briefing.

12:50:51 UTC

KRDM METAR
Roberts Field Airport
Redmond, Oregon, USA
Current

55 mins ago

KRDM 171156Z 16007KT 10SM CLR 09/04 A3006 RMK AO2 SLP157 T00890039 10183 20089 53003
Observed
Jun-17 @ 11:56 UTC
Wind
  • 160° at 7 KTS
Visibility
10 SM
Flight Rules
VFR
Cloud Levels
  • Clear skies
Temperature
C / 48°F
Dewpoint
C / 39°F
Humidity
71%
Altimeter
30.06" Hg
Pressure
1017.92 hPa
Previous

2 hours ago

KRDM 171056Z AUTO 17005KT 10SM CLR 11/04 A3005 RMK AO2 SLP152 T01060044
Observed
Jun-17 @ 10:56 UTC
Wind
  • 170° at 5 KTS
Visibility
10 SM
Flight Rules
VFR
Cloud Levels
  • Clear skies
Temperature
11°C / 52°F
Dewpoint
C / 39°F
Humidity
62%
Altimeter
30.05" Hg
Pressure
1017.62 hPa
Previous

3 hours ago

KRDM 170956Z AUTO 17006KT 10SM CLR 11/05 A3005 RMK AO2 SLP151 T01110050
Observed
Jun-17 @ 09:56 UTC
Wind
  • 170° at 6 KTS
Visibility
10 SM
Flight Rules
VFR
Cloud Levels
  • Clear skies
Temperature
11°C / 52°F
Dewpoint
C / 41°F
Humidity
67%
Altimeter
30.05" Hg
Pressure
1017.62 hPa